sensor_id;sensor_type;location;lat;lon;timestamp;temperature;humidity
298;DHT22;133;49.626;9.680;2023-04-22T00:00:48;11.90;85.20
298;DHT22;133;49.626;9.680;2023-04-22T00:03:14;11.90;85.00
298;DHT22;133;49.626;9.680;2023-04-22T00:05:40;11.90;84.90
298;DHT22;133;49.626;9.680;2023-04-22T00:08:07;12.00;84.50
298;DHT22;133;49.626;9.680;2023-04-22T00:10:33;12.00;84.70
298;DHT22;133;49.626;9.680;2023-04-22T00:12:58;12.10;84.90
298;DHT22;133;49.626;9.680;2023-04-22T00:15:24;12.00;85.00
298;DHT22;133;49.626;9.680;2023-04-22T00:17:51;12.00;84.40
298;DHT22;133;49.626;9.680;2023-04-22T00:20:19;12.00;84.70
298;DHT22;133;49.626;9.680;2023-04-22T00:22:48;12.00;84.80
298;DHT22;133;49.626;9.680;2023-04-22T00:25:14;11.90;85.00
298;DHT22;133;49.626;9.680;2023-04-22T00:27:40;11.90;84.90
298;DHT22;133;49.626;9.680;2023-04-22T00:30:06;11.90;84.90
298;DHT22;133;49.626;9.680;2023-04-22T00:32:32;11.80;85.40
298;DHT22;133;49.626;9.680;2023-04-22T00:34:57;11.90;85.20
298;DHT22;133;49.626;9.680;2023-04-22T00:37:24;11.80;85.20
298;DHT22;133;49.626;9.680;2023-04-22T00:39:50;11.90;85.00
298;DHT22;133;49.626;9.680;2023-04-22T00:42:16;11.90;85.40
298;DHT22;133;49.626;9.680;2023-04-22T00:44:41;11.80;85.60
298;DHT22;133;49.626;9.680;2023-04-22T00:47:10;11.80;85.30
298;DHT22;133;49.626;9.680;2023-04-22T00:49:36;11.90;85.20
298;DHT22;133;49.626;9.680;2023-04-22T00:52:02;11.90;85.40
298;DHT22;133;49.626;9.680;2023-04-22T00:54:28;11.80;85.60
298;DHT22;133;49.626;9.680;2023-04-22T00:56:55;11.70;85.90
298;DHT22;133;49.626;9.680;2023-04-22T00:59:23;11.70;86.00
298;DHT22;133;49.626;9.680;2023-04-22T01:01:50;11.60;86.70
298;DHT22;133;49.626;9.680;2023-04-22T01:04:16;11.60;86.90
298;DHT22;133;49.626;9.680;2023-04-22T01:06:43;11.60;86.80
298;DHT22;133;49.626;9.680;2023-04-22T01:09:09;11.60;87.10
298;DHT22;133;49.626;9.680;2023-04-22T01:11:35;11.50;87.50
298;DHT22;133;49.626;9.680;2023-04-22T01:14:02;11.50;87.80
298;DHT22;133;49.626;9.680;2023-04-22T01:16:29;11.50;87.60
298;DHT22;133;49.626;9.680;2023-04-22T01:18:55;11.40;87.60
298;DHT22;133;49.626;9.680;2023-04-22T01:21:21;11.40;88.00
298;DHT22;133;49.626;9.680;2023-04-22T01:23:48;11.40;88.00
298;DHT22;133;49.626;9.680;2023-04-22T01:26:14;11.40;87.90
298;DHT22;133;49.626;9.680;2023-04-22T01:28:40;11.30;88.40
298;DHT22;133;49.626;9.680;2023-04-22T01:31:06;11.20;88.40
298;DHT22;133;49.626;9.680;2023-04-22T01:33:32;11.20;88.50
298;DHT22;133;49.626;9.680;2023-04-22T01:35:58;11.20;88.60
298;DHT22;133;49.626;9.680;2023-04-22T01:38:24;11.20;88.70
298;DHT22;133;49.626;9.680;2023-04-22T01:40:50;11.20;88.40
298;DHT22;133;49.626;9.680;2023-04-22T01:43:15;11.10;88.40
298;DHT22;133;49.626;9.680;2023-04-22T01:45:41;11.10;88.70
298;DHT22;133;49.626;9.680;2023-04-22T01:48:07;11.10;88.40
298;DHT22;133;49.626;9.680;2023-04-22T01:50:32;11.00;88.30
298;DHT22;133;49.626;9.680;2023-04-22T01:52:58;11.00;88.40
298;DHT22;133;49.626;9.680;2023-04-22T01:55:24;11.00;88.60
298;DHT22;133;49.626;9.680;2023-04-22T01:57:50;11.00;88.90
298;DHT22;133;49.626;9.680;2023-04-22T02:00:17;11.00;88.80
298;DHT22;133;49.626;9.680;2023-04-22T02:02:42;11.00;88.60
298;DHT22;133;49.626;9.680;2023-04-22T02:05:08;11.00;88.80
298;DHT22;133;49.626;9.680;2023-04-22T02:07:34;11.00;88.70
298;DHT22;133;49.626;9.680;2023-04-22T02:10:01;11.00;88.90
298;DHT22;133;49.626;9.680;2023-04-22T02:12:28;11.00;89.40
298;DHT22;133;49.626;9.680;2023-04-22T02:14:55;10.90;89.60
298;DHT22;133;49.626;9.680;2023-04-22T02:17:21;10.90;89.70
298;DHT22;133;49.626;9.680;2023-04-22T02:19:46;11.00;89.30
298;DHT22;133;49.626;9.680;2023-04-22T02:22:12;11.00;89.10
298;DHT22;133;49.626;9.680;2023-04-22T02:24:37;11.00;89.00
298;DHT22;133;49.626;9.680;2023-04-22T02:27:03;11.00;89.00
298;DHT22;133;49.626;9.680;2023-04-22T02:29:29;10.90;89.20
298;DHT22;133;49.626;9.680;2023-04-22T02:31:57;10.90;89.00
298;DHT22;133;49.626;9.680;2023-04-22T02:34:23;10.90;88.90
298;DHT22;133;49.626;9.680;2023-04-22T02:36:48;10.90;89.30
298;DHT22;133;49.626;9.680;2023-04-22T02:39:14;10.90;89.40
298;DHT22;133;49.626;9.680;2023-04-22T02:41:39;10.90;89.40
298;DHT22;133;49.626;9.680;2023-04-22T02:44:05;10.80;89.70
298;DHT22;133;49.626;9.680;2023-04-22T02:46:31;10.80;89.60
298;DHT22;133;49.626;9.680;2023-04-22T02:48:56;10.90;89.60
298;DHT22;133;49.626;9.680;2023-04-22T02:51:22;10.80;89.80
298;DHT22;133;49.626;9.680;2023-04-22T02:53:47;10.80;89.70
298;DHT22;133;49.626;9.680;2023-04-22T02:56:13;10.80;90.20
298;DHT22;133;49.626;9.680;2023-04-22T02:58:39;10.80;90.00
298;DHT22;133;49.626;9.680;2023-04-22T03:01:04;10.80;90.00
298;DHT22;133;49.626;9.680;2023-04-22T03:03:30;10.90;89.70
298;DHT22;133;49.626;9.680;2023-04-22T03:05:56;10.90;89.70
298;DHT22;133;49.626;9.680;2023-04-22T03:08:22;10.90;89.70
298;DHT22;133;49.626;9.680;2023-04-22T03:10:47;11.00;89.40
298;DHT22;133;49.626;9.680;2023-04-22T03:13:13;10.90;89.70
298;DHT22;133;49.626;9.680;2023-04-22T03:15:39;10.90;89.50
298;DHT22;133;49.626;9.680;2023-04-22T03:18:06;10.90;89.60
298;DHT22;133;49.626;9.680;2023-04-22T03:20:31;10.80;90.00
298;DHT22;133;49.626;9.680;2023-04-22T03:22:57;10.70;90.10
298;DHT22;133;49.626;9.680;2023-04-22T03:25:23;10.70;90.10
298;DHT22;133;49.626;9.680;2023-04-22T03:27:48;10.70;90.10
298;DHT22;133;49.626;9.680;2023-04-22T03:30:14;10.70;90.00
298;DHT22;133;49.626;9.680;2023-04-22T03:32:40;10.70;90.20
298;DHT22;133;49.626;9.680;2023-04-22T03:35:05;10.70;90.30
298;DHT22;133;49.626;9.680;2023-04-22T03:37:31;10.60;90.50
298;DHT22;133;49.626;9.680;2023-04-22T03:39:57;10.60;90.50
298;DHT22;133;49.626;9.680;2023-04-22T03:42:22;10.60;90.60
298;DHT22;133;49.626;9.680;2023-04-22T03:44:48;10.50;90.50
298;DHT22;133;49.626;9.680;2023-04-22T03:47:14;10.50;90.80
298;DHT22;133;49.626;9.680;2023-04-22T03:49:39;10.50;90.80
298;DHT22;133;49.626;9.680;2023-04-22T03:52:05;10.50;90.80
298;DHT22;133;49.626;9.680;2023-04-22T03:54:31;10.40;91.00
298;DHT22;133;49.626;9.680;2023-04-22T03:56:56;10.40;91.00
298;DHT22;133;49.626;9.680;2023-04-22T03:59:22;10.40;91.00
298;DHT22;133;49.626;9.680;2023-04-22T04:01:50;10.40;91.40
298;DHT22;133;49.626;9.680;2023-04-22T04:04:17;10.40;91.60
298;DHT22;133;49.626;9.680;2023-04-22T04:06:42;10.40;91.40
298;DHT22;133;49.626;9.680;2023-04-22T04:09:08;10.40;91.30
298;DHT22;133;49.626;9.680;2023-04-22T04:11:33;10.40;91.40
298;DHT22;133;49.626;9.680;2023-04-22T04:13:59;10.50;91.40
298;DHT22;133;49.626;9.680;2023-04-22T04:16:25;10.40;91.60
298;DHT22;133;49.626;9.680;2023-04-22T04:18:50;10.40;91.80
298;DHT22;133;49.626;9.680;2023-04-22T04:21:16;10.40;91.60
298;DHT22;133;49.626;9.680;2023-04-22T04:23:42;10.40;91.70
298;DHT22;133;49.626;9.680;2023-04-22T04:26:08;10.40;91.60
298;DHT22;133;49.626;9.680;2023-04-22T04:28:33;10.30;91.40
298;DHT22;133;49.626;9.680;2023-04-22T04:31:00;10.30;91.80
298;DHT22;133;49.626;9.680;2023-04-22T04:33:29;10.30;91.50
298;DHT22;133;49.626;9.680;2023-04-22T04:35:57;10.30;91.90
298;DHT22;133;49.626;9.680;2023-04-22T04:38:23;10.40;91.70
298;DHT22;133;49.626;9.680;2023-04-22T04:40:50;10.40;91.60
298;DHT22;133;49.626;9.680;2023-04-22T04:43:15;10.40;91.60
298;DHT22;133;49.626;9.680;2023-04-22T04:45:41;10.30;91.90
298;DHT22;133;49.626;9.680;2023-04-22T04:48:14;10.30;92.20
298;DHT22;133;49.626;9.680;2023-04-22T04:50:42;10.40;91.70
298;DHT22;133;49.626;9.680;2023-04-22T04:53:09;10.40;91.30
298;DHT22;133;49.626;9.680;2023-04-22T04:55:35;10.40;91.70
298;DHT22;133;49.626;9.680;2023-04-22T04:58:01;10.40;92.00
298;DHT22;133;49.626;9.680;2023-04-22T05:00:26;10.40;92.20
298;DHT22;133;49.626;9.680;2023-04-22T05:02:52;10.40;91.90
298;DHT22;133;49.626;9.680;2023-04-22T05:05:18;10.50;91.90
298;DHT22;133;49.626;9.680;2023-04-22T05:07:43;10.50;91.80
298;DHT22;133;49.626;9.680;2023-04-22T05:10:09;10.40;91.90
298;DHT22;133;49.626;9.680;2023-04-22T05:12:35;10.40;92.00
298;DHT22;133;49.626;9.680;2023-04-22T05:15:01;10.50;91.80
298;DHT22;133;49.626;9.680;2023-04-22T05:17:27;10.50;91.40
298;DHT22;133;49.626;9.680;2023-04-22T05:19:52;10.60;91.40
298;DHT22;133;49.626;9.680;2023-04-22T05:22:18;10.70;91.50
298;DHT22;133;49.626;9.680;2023-04-22T05:24:44;10.70;91.10
298;DHT22;133;49.626;9.680;2023-04-22T05:27:09;10.70;91.50
298;DHT22;133;49.626;9.680;2023-04-22T05:29:35;10.80;91.20
298;DHT22;133;49.626;9.680;2023-04-22T05:32:01;10.70;90.80
298;DHT22;133;49.626;9.680;2023-04-22T05:34:26;10.80;90.80
298;DHT22;133;49.626;9.680;2023-04-22T05:36:52;10.80;90.80
298;DHT22;133;49.626;9.680;2023-04-22T05:39:19;10.80;90.90
298;DHT22;133;49.626;9.680;2023-04-22T05:41:45;10.80;90.70
298;DHT22;133;49.626;9.680;2023-04-22T05:44:10;10.90;90.90
298;DHT22;133;49.626;9.680;2023-04-22T05:46:36;10.90;90.80
298;DHT22;133;49.626;9.680;2023-04-22T05:49:02;11.00;90.80
298;DHT22;133;49.626;9.680;2023-04-22T05:51:27;11.00;90.50
298;DHT22;133;49.626;9.680;2023-04-22T05:53:53;11.00;90.10
298;DHT22;133;49.626;9.680;2023-04-22T05:56:19;11.00;90.30
298;DHT22;133;49.626;9.680;2023-04-22T05:58:45;11.10;90.10
298;DHT22;133;49.626;9.680;2023-04-22T06:01:12;11.10;90.20
298;DHT22;133;49.626;9.680;2023-04-22T06:03:37;11.20;89.80
298;DHT22;133;49.626;9.680;2023-04-22T06:06:03;11.30;89.50
298;DHT22;133;49.626;9.680;2023-04-22T06:08:30;11.20;89.40
298;DHT22;133;49.626;9.680;2023-04-22T06:10:55;11.00;90.10
298;DHT22;133;49.626;9.680;2023-04-22T06:13:21;11.00;90.60
298;DHT22;133;49.626;9.680;2023-04-22T06:15:47;11.10;90.60
298;DHT22;133;49.626;9.680;2023-04-22T06:18:12;11.20;90.60
298;DHT22;133;49.626;9.680;2023-04-22T06:20:38;11.30;90.70
298;DHT22;133;49.626;9.680;2023-04-22T06:23:04;11.40;90.40
298;DHT22;133;49.626;9.680;2023-04-22T06:25:30;11.60;90.10
298;DHT22;133;49.626;9.680;2023-04-22T06:28:00;11.60;90.00
298;DHT22;133;49.626;9.680;2023-04-22T06:30:26;11.70;89.70
298;DHT22;133;49.626;9.680;2023-04-22T06:32:52;11.80;89.30
298;DHT22;133;49.626;9.680;2023-04-22T06:35:19;11.90;88.70
298;DHT22;133;49.626;9.680;2023-04-22T06:37:46;12.00;88.20
298;DHT22;133;49.626;9.680;2023-04-22T06:40:13;12.00;87.70
298;DHT22;133;49.626;9.680;2023-04-22T06:42:38;12.10;87.40
298;DHT22;133;49.626;9.680;2023-04-22T06:45:04;12.10;87.50
298;DHT22;133;49.626;9.680;2023-04-22T06:47:30;12.20;87.00
298;DHT22;133;49.626;9.680;2023-04-22T06:49:56;12.30;87.20
298;DHT22;133;49.626;9.680;2023-04-22T06:52:21;12.30;87.10
298;DHT22;133;49.626;9.680;2023-04-22T06:54:47;12.40;87.10
298;DHT22;133;49.626;9.680;2023-04-22T06:57:12;12.50;86.40
298;DHT22;133;49.626;9.680;2023-04-22T06:59:38;12.50;86.60
298;DHT22;133;49.626;9.680;2023-04-22T07:02:04;12.50;87.00
298;DHT22;133;49.626;9.680;2023-04-22T07:04:30;12.60;86.60
298;DHT22;133;49.626;9.680;2023-04-22T07:06:56;12.70;87.20
298;DHT22;133;49.626;9.680;2023-04-22T07:09:22;12.80;86.80
298;DHT22;133;49.626;9.680;2023-04-22T07:11:48;12.90;86.50
298;DHT22;133;49.626;9.680;2023-04-22T07:14:13;13.00;85.70
298;DHT22;133;49.626;9.680;2023-04-22T07:16:39;13.10;85.20
298;DHT22;133;49.626;9.680;2023-04-22T07:19:05;13.10;84.70
298;DHT22;133;49.626;9.680;2023-04-22T07:21:33;12.70;84.30
298;DHT22;133;49.626;9.680;2023-04-22T07:23:59;12.60;85.60
298;DHT22;133;49.626;9.680;2023-04-22T07:26:25;12.60;86.30
298;DHT22;133;49.626;9.680;2023-04-22T07:28:50;12.50;85.70
298;DHT22;133;49.626;9.680;2023-04-22T07:31:16;12.60;86.20
298;DHT22;133;49.626;9.680;2023-04-22T07:33:42;12.80;86.40
298;DHT22;133;49.626;9.680;2023-04-22T07:36:07;12.90;86.00
298;DHT22;133;49.626;9.680;2023-04-22T07:38:33;13.10;86.00
298;DHT22;133;49.626;9.680;2023-04-22T07:40:59;13.10;86.20
298;DHT22;133;49.626;9.680;2023-04-22T07:43:24;13.30;86.00
298;DHT22;133;49.626;9.680;2023-04-22T07:45:50;13.50;85.70
298;DHT22;133;49.626;9.680;2023-04-22T07:48:16;13.60;85.50
298;DHT22;133;49.626;9.680;2023-04-22T07:50:41;13.90;85.30
298;DHT22;133;49.626;9.680;2023-04-22T07:53:07;14.10;84.10
298;DHT22;133;49.626;9.680;2023-04-22T07:55:35;14.20;84.00
298;DHT22;133;49.626;9.680;2023-04-22T07:58:02;14.40;83.70
298;DHT22;133;49.626;9.680;2023-04-22T08:00:34;14.60;83.10
298;DHT22;133;49.626;9.680;2023-04-22T08:03:01;14.80;83.40
298;DHT22;133;49.626;9.680;2023-04-22T08:05:27;15.00;82.70
298;DHT22;133;49.626;9.680;2023-04-22T08:07:52;15.20;81.60
298;DHT22;133;49.626;9.680;2023-04-22T08:10:18;15.40;81.30
298;DHT22;133;49.626;9.680;2023-04-22T08:12:44;15.60;81.30
298;DHT22;133;49.626;9.680;2023-04-22T08:15:10;15.70;80.10
298;DHT22;133;49.626;9.680;2023-04-22T08:17:36;15.90;79.80
298;DHT22;133;49.626;9.680;2023-04-22T08:20:03;16.00;79.20
298;DHT22;133;49.626;9.680;2023-04-22T08:22:29;15.80;79.50
298;DHT22;133;49.626;9.680;2023-04-22T08:24:59;15.90;79.60
298;DHT22;133;49.626;9.680;2023-04-22T08:27:25;16.10;79.20
298;DHT22;133;49.626;9.680;2023-04-22T08:29:50;16.00;79.00
298;DHT22;133;49.626;9.680;2023-04-22T08:32:16;16.10;79.20
298;DHT22;133;49.626;9.680;2023-04-22T08:34:47;16.30;79.00
298;DHT22;133;49.626;9.680;2023-04-22T08:37:13;16.50;78.80
298;DHT22;133;49.626;9.680;2023-04-22T08:39:39;16.50;78.70
298;DHT22;133;49.626;9.680;2023-04-22T08:42:04;16.70;77.70
298;DHT22;133;49.626;9.680;2023-04-22T08:44:30;16.80;78.00
298;DHT22;133;49.626;9.680;2023-04-22T08:46:56;17.00;78.00
298;DHT22;133;49.626;9.680;2023-04-22T08:49:23;17.10;78.10
298;DHT22;133;49.626;9.680;2023-04-22T08:51:50;17.10;77.30
298;DHT22;133;49.626;9.680;2023-04-22T08:54:17;17.40;76.90
298;DHT22;133;49.626;9.680;2023-04-22T08:56:44;17.50;76.70
298;DHT22;133;49.626;9.680;2023-04-22T08:59:10;17.70;76.20
298;DHT22;133;49.626;9.680;2023-04-22T09:01:38;17.70;75.50
298;DHT22;133;49.626;9.680;2023-04-22T09:04:04;17.90;73.70
298;DHT22;133;49.626;9.680;2023-04-22T09:06:31;17.90;73.50
298;DHT22;133;49.626;9.680;2023-04-22T09:08:57;17.90;74.20
298;DHT22;133;49.626;9.680;2023-04-22T09:11:26;18.00;74.40
298;DHT22;133;49.626;9.680;2023-04-22T09:13:53;18.00;73.40
298;DHT22;133;49.626;9.680;2023-04-22T09:16:19;18.10;73.60
298;DHT22;133;49.626;9.680;2023-04-22T09:18:44;18.20;73.70
298;DHT22;133;49.626;9.680;2023-04-22T09:21:10;18.40;74.00
298;DHT22;133;49.626;9.680;2023-04-22T09:23:49;18.60;73.20
298;DHT22;133;49.626;9.680;2023-04-22T09:26:17;18.80;72.20
298;DHT22;133;49.626;9.680;2023-04-22T09:28:55;19.10;70.60
298;DHT22;133;49.626;9.680;2023-04-22T09:31:23;19.20;69.00
298;DHT22;133;49.626;9.680;2023-04-22T09:34:08;19.50;69.40
298;DHT22;133;49.626;9.680;2023-04-22T09:36:33;19.70;67.10
298;DHT22;133;49.626;9.680;2023-04-22T09:39:03;19.90;66.80
298;DHT22;133;49.626;9.680;2023-04-22T09:41:31;20.20;65.20
298;DHT22;133;49.626;9.680;2023-04-22T09:43:58;20.60;65.30
298;DHT22;133;49.626;9.680;2023-04-22T09:46:25;20.90;63.60
298;DHT22;133;49.626;9.680;2023-04-22T09:48:53;21.30;60.70
298;DHT22;133;49.626;9.680;2023-04-22T09:51:19;21.70;60.90
298;DHT22;133;49.626;9.680;2023-04-22T09:59:23;22.50;57.80
298;DHT22;133;49.626;9.680;2023-04-22T10:02:01;22.50;59.60
298;DHT22;133;49.626;9.680;2023-04-22T10:04:29;22.50;60.30
298;DHT22;133;49.626;9.680;2023-04-22T10:06:55;22.20;59.00
298;DHT22;133;49.626;9.680;2023-04-22T10:09:24;21.90;59.90
298;DHT22;133;49.626;9.680;2023-04-22T10:11:52;22.00;60.20
298;DHT22;133;49.626;9.680;2023-04-22T10:14:22;22.20;60.20
298;DHT22;133;49.626;9.680;2023-04-22T10:16:52;22.40;60.30
298;DHT22;133;49.626;9.680;2023-04-22T10:22:21;22.50;59.70
298;DHT22;133;49.626;9.680;2023-04-22T10:24:49;22.60;58.30
298;DHT22;133;49.626;9.680;2023-04-22T10:27:20;22.70;58.90
298;DHT22;133;49.626;9.680;2023-04-22T10:29:49;22.80;59.00
298;DHT22;133;49.626;9.680;2023-04-22T10:34:48;23.10;59.70
298;DHT22;133;49.626;9.680;2023-04-22T10:37:17;23.30;58.50
298;DHT22;133;49.626;9.680;2023-04-22T10:42:33;24.00;56.70
298;DHT22;133;49.626;9.680;2023-04-22T10:45:01;24.40;57.00
298;DHT22;133;49.626;9.680;2023-04-22T10:47:30;24.60;56.10
298;DHT22;133;49.626;9.680;2023-04-22T10:50:26;24.80;55.40
298;DHT22;133;49.626;9.680;2023-04-22T10:53:00;25.30;54.20
298;DHT22;133;49.626;9.680;2023-04-22T10:55:51;26.00;53.40
298;DHT22;133;49.626;9.680;2023-04-22T10:58:21;27.00;51.40
298;DHT22;133;49.626;9.680;2023-04-22T11:00:46;27.60;50.50
298;DHT22;133;49.626;9.680;2023-04-22T11:03:25;27.70;47.60
298;DHT22;133;49.626;9.680;2023-04-22T11:06:17;27.70;49.20
298;DHT22;133;49.626;9.680;2023-04-22T11:08:51;27.80;48.40
298;DHT22;133;49.626;9.680;2023-04-22T11:11:31;28.00;48.10
298;DHT22;133;49.626;9.680;2023-04-22T11:13:57;27.60;49.30
298;DHT22;133;49.626;9.680;2023-04-22T11:16:23;27.50;48.40
298;DHT22;133;49.626;9.680;2023-04-22T11:18:49;27.00;48.00
298;DHT22;133;49.626;9.680;2023-04-22T11:21:15;26.60;48.10
298;DHT22;133;49.626;9.680;2023-04-22T11:23:49;26.60;48.10
298;DHT22;133;49.626;9.680;2023-04-22T11:26:18;27.00;49.40
298;DHT22;133;49.626;9.680;2023-04-22T11:28:58;27.60;49.30
298;DHT22;133;49.626;9.680;2023-04-22T11:31:24;28.10;47.90
298;DHT22;133;49.626;9.680;2023-04-22T11:33:50;28.20;46.90
298;DHT22;133;49.626;9.680;2023-04-22T11:36:19;28.50;45.80
298;DHT22;133;49.626;9.680;2023-04-22T11:39:33;29.20;45.80
298;DHT22;133;49.626;9.680;2023-04-22T11:44:51;29.50;45.10
298;DHT22;133;49.626;9.680;2023-04-22T11:47:17;28.90;43.90
298;DHT22;133;49.626;9.680;2023-04-22T11:50:03;28.90;44.70
298;DHT22;133;49.626;9.680;2023-04-22T11:53:22;29.10;43.60
298;DHT22;133;49.626;9.680;2023-04-22T11:56:14;29.50;43.30
298;DHT22;133;49.626;9.680;2023-04-22T11:58:40;29.90;42.40
298;DHT22;133;49.626;9.680;2023-04-22T12:01:11;29.40;41.80
298;DHT22;133;49.626;9.680;2023-04-22T12:03:38;29.90;42.20
298;DHT22;133;49.626;9.680;2023-04-22T12:06:04;29.50;40.70
298;DHT22;133;49.626;9.680;2023-04-22T12:08:37;29.40;40.60
298;DHT22;133;49.626;9.680;2023-04-22T12:11:15;29.30;41.40
298;DHT22;133;49.626;9.680;2023-04-22T12:13:45;29.50;41.40
298;DHT22;133;49.626;9.680;2023-04-22T12:16:17;29.20;41.40
298;DHT22;133;49.626;9.680;2023-04-22T12:18:50;29.60;41.60
298;DHT22;133;49.626;9.680;2023-04-22T12:21:21;30.40;41.50
298;DHT22;133;49.626;9.680;2023-04-22T12:24:01;31.00;40.50
298;DHT22;133;49.626;9.680;2023-04-22T12:27:03;31.60;37.80
298;DHT22;133;49.626;9.680;2023-04-22T12:29:58;31.60;39.10
298;DHT22;133;49.626;9.680;2023-04-22T12:36:03;32.80;38.60
298;DHT22;133;49.626;9.680;2023-04-22T12:39:25;33.50;37.70
298;DHT22;133;49.626;9.680;2023-04-22T12:59:21;32.70;38.10
298;DHT22;133;49.626;9.680;2023-04-22T13:01:47;32.90;38.10
298;DHT22;133;49.626;9.680;2023-04-22T13:11:01;32.90;35.80
298;DHT22;133;49.626;9.680;2023-04-22T13:13:27;32.70;38.00
298;DHT22;133;49.626;9.680;2023-04-22T13:15:55;31.50;36.00
298;DHT22;133;49.626;9.680;2023-04-22T13:18:21;30.30;38.30
298;DHT22;133;49.626;9.680;2023-04-22T13:20:47;30.00;38.60
298;DHT22;133;49.626;9.680;2023-04-22T13:23:33;29.70;38.60
298;DHT22;133;49.626;9.680;2023-04-22T13:29:07;30.80;40.00
298;DHT22;133;49.626;9.680;2023-04-22T13:35:12;30.90;37.90
298;DHT22;133;49.626;9.680;2023-04-22T13:37:41;30.70;37.40
298;DHT22;133;49.626;9.680;2023-04-22T13:40:07;30.50;37.60
298;DHT22;133;49.626;9.680;2023-04-22T13:42:33;30.20;38.60
298;DHT22;133;49.626;9.680;2023-04-22T13:44:58;29.60;38.80
298;DHT22;133;49.626;9.680;2023-04-22T13:47:45;28.40;40.50
298;DHT22;133;49.626;9.680;2023-04-22T13:50:10;27.80;41.40
298;DHT22;133;49.626;9.680;2023-04-22T13:52:39;27.30;42.90
298;DHT22;133;49.626;9.680;2023-04-22T13:55:06;26.90;43.00
298;DHT22;133;49.626;9.680;2023-04-22T13:57:32;26.70;43.50
298;DHT22;133;49.626;9.680;2023-04-22T14:00:04;26.40;44.20
298;DHT22;133;49.626;9.680;2023-04-22T14:05:32;25.70;45.60
298;DHT22;133;49.626;9.680;2023-04-22T14:07:58;25.50;45.70
298;DHT22;133;49.626;9.680;2023-04-22T14:10:24;25.00;46.80
298;DHT22;133;49.626;9.680;2023-04-22T14:12:53;24.90;47.10
298;DHT22;133;49.626;9.680;2023-04-22T14:16:03;24.80;47.70
298;DHT22;133;49.626;9.680;2023-04-22T14:18:36;24.60;47.80
298;DHT22;133;49.626;9.680;2023-04-22T14:21:06;24.50;48.30
298;DHT22;133;49.626;9.680;2023-04-22T14:23:36;24.30;48.50
298;DHT22;133;49.626;9.680;2023-04-22T14:26:03;24.20;48.00
298;DHT22;133;49.626;9.680;2023-04-22T14:28:29;24.10;48.00
298;DHT22;133;49.626;9.680;2023-04-22T14:30:55;24.00;49.00
298;DHT22;133;49.626;9.680;2023-04-22T14:33:22;23.90;49.00
298;DHT22;133;49.626;9.680;2023-04-22T14:35:50;23.90;49.10
298;DHT22;133;49.626;9.680;2023-04-22T14:38:16;23.80;49.50
298;DHT22;133;49.626;9.680;2023-04-22T14:40:46;23.80;49.60
298;DHT22;133;49.626;9.680;2023-04-22T14:43:12;23.90;49.60
298;DHT22;133;49.626;9.680;2023-04-22T14:45:38;23.90;49.40
298;DHT22;133;49.626;9.680;2023-04-22T14:48:04;23.90;49.40
298;DHT22;133;49.626;9.680;2023-04-22T14:50:30;23.90;49.80
298;DHT22;133;49.626;9.680;2023-04-22T14:52:56;23.80;50.00
298;DHT22;133;49.626;9.680;2023-04-22T14:55:22;23.80;50.50
298;DHT22;133;49.626;9.680;2023-04-22T14:57:49;23.70;50.40
298;DHT22;133;49.626;9.680;2023-04-22T15:00:15;23.50;50.50
298;DHT22;133;49.626;9.680;2023-04-22T15:02:41;23.40;50.80
298;DHT22;133;49.626;9.680;2023-04-22T15:05:07;23.20;50.70
298;DHT22;133;49.626;9.680;2023-04-22T15:07:53;23.00;51.40
298;DHT22;133;49.626;9.680;2023-04-22T15:10:19;22.70;52.30
298;DHT22;133;49.626;9.680;2023-04-22T15:12:45;22.40;53.80
298;DHT22;133;49.626;9.680;2023-04-22T15:15:10;22.40;54.30
298;DHT22;133;49.626;9.680;2023-04-22T15:17:40;22.20;55.70
298;DHT22;133;49.626;9.680;2023-04-22T15:20:06;21.90;56.70
298;DHT22;133;49.626;9.680;2023-04-22T15:22:32;21.70;57.40
298;DHT22;133;49.626;9.680;2023-04-22T15:24:58;21.60;57.60
298;DHT22;133;49.626;9.680;2023-04-22T15:27:24;21.70;57.70
298;DHT22;133;49.626;9.680;2023-04-22T15:29:50;21.80;57.50
298;DHT22;133;49.626;9.680;2023-04-22T15:32:16;21.70;57.50
298;DHT22;133;49.626;9.680;2023-04-22T15:34:42;21.70;57.40
298;DHT22;133;49.626;9.680;2023-04-22T15:37:07;21.60;57.30
298;DHT22;133;49.626;9.680;2023-04-22T15:39:33;21.70;57.90
298;DHT22;133;49.626;9.680;2023-04-22T15:41:58;21.70;58.10
298;DHT22;133;49.626;9.680;2023-04-22T15:44:24;21.70;58.40
298;DHT22;133;49.626;9.680;2023-04-22T15:46:50;21.60;58.30
298;DHT22;133;49.626;9.680;2023-04-22T15:49:17;21.60;58.10
298;DHT22;133;49.626;9.680;2023-04-22T15:51:42;21.50;58.30
298;DHT22;133;49.626;9.680;2023-04-22T15:54:08;21.60;58.30
298;DHT22;133;49.626;9.680;2023-04-22T15:56:34;21.50;58.40
298;DHT22;133;49.626;9.680;2023-04-22T15:59:00;21.40;58.40
298;DHT22;133;49.626;9.680;2023-04-22T16:01:25;21.30;58.40
298;DHT22;133;49.626;9.680;2023-04-22T16:03:51;21.30;58.40
298;DHT22;133;49.626;9.680;2023-04-22T16:06:17;21.30;58.60
298;DHT22;133;49.626;9.680;2023-04-22T16:08:43;21.40;58.80
298;DHT22;133;49.626;9.680;2023-04-22T16:11:13;21.30;58.40
298;DHT22;133;49.626;9.680;2023-04-22T16:13:40;21.20;58.60
298;DHT22;133;49.626;9.680;2023-04-22T16:16:06;21.20;58.70
298;DHT22;133;49.626;9.680;2023-04-22T16:18:32;21.10;58.70
298;DHT22;133;49.626;9.680;2023-04-22T16:20:59;21.10;58.10
298;DHT22;133;49.626;9.680;2023-04-22T16:23:25;21.00;58.30
298;DHT22;133;49.626;9.680;2023-04-22T16:25:51;21.00;58.30
298;DHT22;133;49.626;9.680;2023-04-22T16:28:16;20.90;58.10
298;DHT22;133;49.626;9.680;2023-04-22T16:30:42;20.80;58.40
298;DHT22;133;49.626;9.680;2023-04-22T16:33:08;20.80;58.30
298;DHT22;133;49.626;9.680;2023-04-22T16:35:33;20.90;58.40
298;DHT22;133;49.626;9.680;2023-04-22T16:37:59;20.90;58.20
298;DHT22;133;49.626;9.680;2023-04-22T16:40:25;20.90;57.80
298;DHT22;133;49.626;9.680;2023-04-22T16:42:50;21.00;57.80
298;DHT22;133;49.626;9.680;2023-04-22T16:45:16;21.00;58.00
298;DHT22;133;49.626;9.680;2023-04-22T16:47:42;20.90;58.00
298;DHT22;133;49.626;9.680;2023-04-22T16:50:08;20.90;57.60
298;DHT22;133;49.626;9.680;2023-04-22T16:52:38;20.80;57.90
298;DHT22;133;49.626;9.680;2023-04-22T16:55:04;20.80;57.80
298;DHT22;133;49.626;9.680;2023-04-22T16:57:31;20.70;57.80
298;DHT22;133;49.626;9.680;2023-04-22T16:59:57;20.70;58.20
298;DHT22;133;49.626;9.680;2023-04-22T17:02:22;20.70;58.60
298;DHT22;133;49.626;9.680;2023-04-22T17:04:48;20.80;58.90
298;DHT22;133;49.626;9.680;2023-04-22T17:07:14;20.70;59.30
298;DHT22;133;49.626;9.680;2023-04-22T17:09:39;20.70;59.80
298;DHT22;133;49.626;9.680;2023-04-22T17:12:05;20.70;59.70
298;DHT22;133;49.626;9.680;2023-04-22T17:14:31;20.70;59.70
298;DHT22;133;49.626;9.680;2023-04-22T17:16:57;20.80;60.00
298;DHT22;133;49.626;9.680;2023-04-22T17:19:23;20.80;60.10
298;DHT22;133;49.626;9.680;2023-04-22T17:21:49;20.80;60.00
298;DHT22;133;49.626;9.680;2023-04-22T17:24:15;20.80;60.10
298;DHT22;133;49.626;9.680;2023-04-22T17:26:40;20.80;61.00
298;DHT22;133;49.626;9.680;2023-04-22T17:29:06;20.80;60.60
298;DHT22;133;49.626;9.680;2023-04-22T17:31:32;20.80;60.20